Time;durP1;ratioP1;P1;durP2;ratioP2;P2;SDS_P1;SDS_P2;PMS_P1;PMS_P2;Temp;Humidity;BMP_temperature;BMP_pressure;BME280_temperature;BME280_humidity;BME280_pressure;Samples;Min_cycle;Max_cycle;Signal;HPM_P1;HPM_P2
2024/04/13 00:03:32;;;;;;;1.27;0.97;;;;;;;17.77;50.20;97897.25;11256956;26;20066;-32
2024/04/13 00:08:32;;;;;;;2.13;0.80;;;;;;;17.76;50.02;97895.56;11247359;26;20010;-33
2024/04/13 00:13:32;;;;;;;1.80;0.70;;;;;;;17.75;50.22;97896.38;11252523;26;20436;-32
2024/04/13 00:18:35;;;;;;;1.20;0.80;;;;;;;17.75;49.96;97891.31;11260421;26;19998;-32
2024/04/13 00:23:35;;;;;;;0.98;0.73;;;;;;;17.74;49.41;97892.16;11256891;26;20790;-33
2024/04/13 00:28:36;;;;;;;0.98;0.70;;;;;;;17.74;49.73;97892.16;11252490;26;19999;-32
2024/04/13 00:33:38;;;;;;;1.00;0.57;;;;;;;17.73;49.94;97882.84;11264061;26;19994;-32
2024/04/13 00:38:39;;;;;;;1.88;0.68;;;;;;;17.72;49.74;97874.38;11254922;26;20777;-31
2024/04/13 00:43:39;;;;;;;0.97;0.70;;;;;;;17.72;49.73;97863.38;11235748;26;20001;-33
2024/04/13 00:48:39;;;;;;;1.27;0.80;;;;;;;17.70;49.52;97865.88;11267300;26;20067;-31
2024/04/13 00:53:41;;;;;;;0.83;0.70;;;;;;;17.71;49.73;97861.66;11244770;26;20005;-33
2024/04/13 00:58:43;;;;;;;1.38;0.60;;;;;;;17.69;49.61;97863.31;11246751;26;19999;-32
2024/04/13 01:03:44;;;;;;;1.23;0.95;;;;;;;17.68;49.59;97856.53;11256830;26;20015;-32
2024/04/13 01:08:44;;;;;;;0.70;0.70;;;;;;;17.66;49.40;97860.72;11246420;26;20014;-32
2024/04/13 01:13:45;;;;;;;0.70;0.70;;;;;;;17.66;49.52;97848.91;11273047;26;20013;-31
2024/04/13 01:18:47;;;;;;;0.73;0.50;;;;;;;17.65;49.60;97841.28;11265311;26;19999;-31
2024/04/13 01:23:55;;;;;;;0.93;0.73;;;;;;;17.64;49.42;97844.63;11228579;26;20009;-32
2024/04/13 01:28:56;;;;;;;0.65;0.50;;;;;;;17.60;49.45;97847.94;11230346;26;20031;-33
2024/04/13 01:33:56;;;;;;;1.47;0.47;;;;;;;17.63;49.33;97853.03;11256216;26;20017;-31
2024/04/13 01:38:56;;;;;;;0.47;0.40;;;;;;;17.63;49.31;97858.97;11242894;26;20007;-31
2024/04/13 01:43:57;;;;;;;0.50;0.40;;;;;;;17.60;49.20;97847.94;11272178;26;20554;-32
2024/04/13 01:48:57;;;;;;;0.60;0.60;;;;;;;17.60;49.27;97848.81;11268156;26;20444;-32
2024/04/13 01:53:58;;;;;;;0.67;0.40;;;;;;;17.61;49.30;97860.63;11270442;26;19999;-32
2024/04/13 01:58:58;;;;;;;1.17;0.68;;;;;;;17.60;49.25;97853.88;11242830;26;20372;-32
2024/04/13 02:03:58;;;;;;;2.50;1.00;;;;;;;17.60;49.39;97858.06;11228875;26;20007;-31
2024/04/13 02:08:59;;;;;;;0.57;0.43;;;;;;;17.59;49.20;97858.88;11271932;26;20009;-32
2024/04/13 02:14:00;;;;;;;0.60;0.43;;;;;;;17.58;49.45;97862.25;11252488;26;19998;-33
2024/04/13 02:19:00;;;;;;;0.60;0.43;;;;;;;17.57;49.19;97858.00;11259214;26;20014;-33
2024/04/13 02:24:01;;;;;;;0.70;0.50;;;;;;;17.57;48.95;97856.31;11270872;26;20014;-32
2024/04/13 02:29:01;;;;;;;1.08;0.45;;;;;;;17.56;49.12;97852.06;11217572;26;19991;-32
2024/04/13 02:34:02;;;;;;;0.50;0.47;;;;;;;17.56;49.12;97844.47;11226277;26;20536;-33
2024/04/13 02:39:02;;;;;;;0.50;0.40;;;;;;;17.55;49.00;97849.50;11245503;26;20348;-33
2024/04/13 02:44:03;;;;;;;0.40;0.40;;;;;;;17.55;49.09;97859.63;11258341;26;20059;-31
2024/04/13 02:49:03;;;;;;;0.52;0.50;;;;;;;17.54;49.40;97857.91;11270863;26;20276;-32
2024/04/13 02:54:04;;;;;;;0.40;0.30;;;;;;;17.52;49.08;97860.44;11263495;26;20002;-33
2024/04/13 02:59:05;;;;;;;0.38;0.30;;;;;;;17.51;48.85;97850.28;11260372;26;20042;-32
2024/04/13 03:04:06;;;;;;;0.57;0.40;;;;;;;17.52;49.15;97849.44;11239583;26;20010;-32
2024/04/13 03:09:07;;;;;;;1.05;0.50;;;;;;;17.52;48.90;97849.44;11269458;26;20007;-31
2024/04/13 03:14:08;;;;;;;0.38;0.38;;;;;;;17.51;48.94;97842.66;11239709;26;20456;-31
2024/04/13 03:19:08;;;;;;;0.60;0.60;;;;;;;17.51;49.10;97838.44;11220030;26;20003;-32
2024/04/13 03:24:09;;;;;;;0.50;0.43;;;;;;;17.51;48.88;97837.59;11267964;26;20071;-31
2024/04/13 03:29:09;;;;;;;0.50;0.43;;;;;;;17.49;48.99;97839.25;11211921;26;20007;-32
2024/04/13 03:34:09;;;;;;;2.17;0.57;;;;;;;17.48;48.83;97846.00;11252628;26;20229;-31
2024/04/13 03:39:10;;;;;;;1.13;0.53;;;;;;;17.50;48.94;97838.44;11226483;26;20012;-32
2024/04/13 03:44:11;;;;;;;0.40;0.40;;;;;;;17.49;48.80;97834.19;11252264;26;20007;-31
2024/04/13 03:49:12;;;;;;;0.52;0.52;;;;;;;17.47;48.88;97833.28;11256637;26;20011;-33
2024/04/13 03:54:12;;;;;;;0.30;0.30;;;;;;;17.48;48.83;97827.44;11256313;26;19995;-32
2024/04/13 03:59:13;;;;;;;0.20;0.20;;;;;;;17.47;49.03;97830.75;11253151;26;19999;-33
2024/04/13 04:04:13;;;;;;;0.63;0.40;;;;;;;17.48;48.65;97827.44;11254299;26;19999;-33
2024/04/13 04:09:14;;;;;;;0.50;0.50;;;;;;;17.46;48.86;97832.44;11241919;26;20009;-33
2024/04/13 04:14:14;;;;;;;0.50;0.50;;;;;;;17.48;48.82;97822.38;11267224;26;20525;-32
2024/04/13 04:19:14;;;;;;;0.40;0.40;;;;;;;17.44;48.77;97818.91;11226173;26;20003;-32
2024/04/13 04:24:15;;;;;;;0.57;0.57;;;;;;;17.46;48.81;97826.50;11247984;26;20357;-31
2024/04/13 04:29:15;;;;;;;0.83;0.60;;;;;;;17.46;48.76;97831.56;11205133;26;19998;-32
2024/04/13 04:34:15;;;;;;;0.60;0.40;;;;;;;17.46;48.80;97842.56;11237196;26;20065;-32
2024/04/13 04:39:17;;;;;;;0.47;0.47;;;;;;;17.45;48.85;97832.41;11251168;26;19999;-34
2024/04/13 04:44:17;;;;;;;0.30;0.30;;;;;;;17.45;48.85;97834.94;11255606;26;19999;-31
2024/04/13 04:49:18;;;;;;;0.93;0.37;;;;;;;17.43;48.84;97834.06;11248166;26;20463;-32
2024/04/13 04:54:19;;;;;;;0.50;0.40;;;;;;;17.44;49.17;97838.28;11240343;26;20378;-31
2024/04/13 04:59:20;;;;;;;0.50;0.50;;;;;;;17.45;49.33;97829.88;11246641;26;19999;-32
2024/04/13 05:04:20;;;;;;;0.60;0.43;;;;;;;17.44;48.80;97838.28;11228392;26;19995;-32
2024/04/13 05:09:21;;;;;;;0.80;0.63;;;;;;;17.43;49.08;97841.66;11250133;26;20376;-33
2024/04/13 05:14:21;;;;;;;0.40;0.32;;;;;;;17.42;49.11;97834.88;11254810;26;20265;-33
2024/04/13 05:19:21;;;;;;;0.50;0.40;;;;;;;17.42;48.81;97840.78;11267842;26;19996;-31
2024/04/13 05:24:22;;;;;;;0.57;0.57;;;;;;;17.42;48.66;97848.38;11257610;26;20011;-32
2024/04/13 05:29:23;;;;;;;0.95;0.73;;;;;;;17.40;48.92;97836.53;11260853;26;19996;-33
2024/04/13 05:34:23;;;;;;;0.30;0.30;;;;;;;17.32;48.57;97821.13;11256420;26;19999;-33
2024/04/13 05:39:24;;;;;;;0.40;0.33;;;;;;;17.40;48.87;97824.72;11261430;26;20464;-31
2024/04/13 05:44:24;;;;;;;0.65;0.47;;;;;;;17.42;48.84;97832.34;11252292;26;20089;-32
2024/04/13 05:49:25;;;;;;;1.07;0.33;;;;;;;17.40;48.78;97834.00;11263614;26;19995;-33
2024/04/13 05:54:25;;;;;;;0.43;0.30;;;;;;;17.41;48.78;97830.66;11263846;26;20404;-32
2024/04/13 05:59:25;;;;;;;0.50;0.40;;;;;;;17.38;48.79;97830.56;11262602;26;20878;-32
2024/04/13 06:04:26;;;;;;;0.45;0.45;;;;;;;17.42;48.98;97837.41;11275606;26;19991;-32
2024/04/13 06:09:26;;;;;;;1.30;0.70;;;;;;;17.46;48.92;97844.25;11258084;26;19998;-30
2024/04/13 06:14:26;;;;;;;0.63;0.50;;;;;;;17.43;48.93;97844.19;11250903;26;20018;-31
2024/04/13 06:19:29;;;;;;;0.43;0.30;;;;;;;17.41;48.76;97850.91;11268588;26;20243;-31
2024/04/13 06:24:32;;;;;;;0.30;0.30;;;;;;;17.38;48.88;97854.22;11256726;26;20603;-33
2024/04/13 06:29:32;;;;;;;0.40;0.40;;;;;;;17.36;48.67;97850.78;11263134;26;20003;-32
2024/04/13 06:34:32;;;;;;;0.77;0.30;;;;;;;17.36;48.50;97843.19;11254782;26;20011;-32
2024/04/13 06:39:33;;;;;;;0.40;0.40;;;;;;;17.36;48.76;97835.59;11253081;26;20669;-32
2024/04/13 06:44:34;;;;;;;0.40;0.40;;;;;;;17.37;48.63;97838.97;11251890;26;20011;-32
2024/04/13 06:49:35;;;;;;;0.40;0.40;;;;;;;17.36;48.68;97838.13;11248628;26;20071;-31
2024/04/13 06:54:35;;;;;;;0.33;0.30;;;;;;;17.38;48.57;97830.56;11257230;26;20044;-31
2024/04/13 06:59:37;;;;;;;0.43;0.20;;;;;;;17.39;48.85;97832.25;11243880;26;20002;-32
2024/04/13 07:04:38;;;;;;;1.42;0.90;;;;;;;17.41;49.74;97830.66;11240479;26;20469;-31
2024/04/13 07:09:38;;;;;;;1.30;1.03;;;;;;;17.46;50.10;97829.03;11243420;26;20033;-34
2024/04/13 07:14:39;;;;;;;2.63;1.13;;;;;;;17.44;50.56;97820.56;11262120;26;20263;-31
2024/04/13 07:19:39;;;;;;;2.50;1.20;;;;;;;17.44;49.43;97820.56;11252732;26;20007;-33
2024/04/13 07:24:39;;;;;;;3.63;1.03;;;;;;;17.45;49.27;97820.63;11244940;26;19995;-33
2024/04/13 07:29:40;;;;;;;3.87;1.00;;;;;;;17.45;49.40;97813.03;11248303;26;20059;-33
2024/04/13 07:34:41;;;;;;;1.40;0.60;;;;;;;17.48;51.14;97808.00;11264502;26;20017;-32
2024/04/13 07:39:42;;;;;;;2.38;1.48;;;;;;;17.47;50.27;97815.56;11243674;26;20341;-32
2024/04/13 07:44:42;;;;;;;1.33;0.70;;;;;;;17.50;50.50;97815.66;11250375;26;20049;-31
2024/04/13 07:49:43;;;;;;;3.72;1.10;;;;;;;17.50;51.66;97805.53;11254469;26;20003;-31
2024/04/13 07:54:44;;;;;;;5.38;1.33;;;;;;;17.52;54.33;97804.75;11264858;26;20003;-31
2024/04/13 07:59:45;;;;;;;2.08;0.88;;;;;;;17.56;50.50;97810.72;11255243;26;19995;-32
2024/04/13 08:04:45;;;;;;;0.90;0.70;;;;;;;17.56;49.97;97800.59;11266857;26;20002;-32
2024/04/13 08:09:46;;;;;;;1.03;0.63;;;;;;;17.56;50.13;97800.59;11262876;26;20461;-33
2024/04/13 08:14:46;;;;;;;1.15;0.55;;;;;;;17.57;50.04;97787.09;11265573;26;20731;-32
2024/04/13 08:19:47;;;;;;;2.43;1.33;;;;;;;17.58;51.51;97788.81;11251913;26;19995;-31
2024/04/13 08:24:48;;;;;;;1.57;0.60;;;;;;;17.57;50.20;97787.09;11257425;26;20068;-32
2024/04/13 08:29:49;;;;;;;8.57;1.60;;;;;;;17.55;49.86;97787.06;11264609;26;19995;-32
2024/04/13 08:34:51;;;;;;;2.25;0.70;;;;;;;17.54;49.83;97779.41;11245292;26;20014;-26
2024/04/13 08:39:52;;;;;;;2.03;0.60;;;;;;;17.55;49.78;97779.47;11243963;26;20002;-32
2024/04/13 08:44:53;;;;;;;3.13;0.80;;;;;;;17.55;49.98;97784.53;11261434;26;20445;-31
2024/04/13 08:49:58;;;;;;;3.08;1.17;;;;;;;17.53;52.00;97771.00;11245342;26;20018;-32
2024/04/13 08:54:59;;;;;;;1.38;0.77;;;;;;;17.54;50.18;97766.75;11252104;26;20010;-32
2024/04/13 09:00:08;;;;;;;1.40;0.80;;;;;;;17.54;50.12;97764.22;11254883;26;20014;-33
2024/04/13 09:05:09;;;;;;;1.05;0.70;;;;;;;17.55;50.27;97759.22;11261061;26;20006;-33
2024/04/13 09:10:11;;;;;;;4.28;1.30;;;;;;;17.55;50.03;97751.63;11266666;26;20011;-31
2024/04/13 09:15:12;;;;;;;2.15;1.00;;;;;;;17.54;50.24;97743.97;11264863;26;20104;-31
2024/04/13 09:20:14;;;;;;;2.45;0.90;;;;;;;17.54;50.26;97747.38;11266660;26;19991;-33
2024/04/13 09:25:24;;;;;;;1.27;0.60;;;;;;;17.54;50.05;97741.44;11267542;26;20356;-33
2024/04/13 09:30:24;;;;;;;2.92;0.70;;;;;;;17.53;49.83;97739.75;11265572;26;20002;-34
2024/04/13 09:35:25;;;;;;;1.10;0.80;;;;;;;17.55;49.80;97748.22;11270948;26;20007;-33
2024/04/13 09:40:26;;;;;;;2.93;1.13;;;;;;;17.54;49.95;97743.97;11260105;26;20345;-33
2024/04/13 09:45:27;;;;;;;3.85;1.58;;;;;;;17.56;52.29;97737.28;11270753;26;20232;-31
2024/04/13 09:50:28;;;;;;;4.30;1.58;;;;;;;17.57;51.24;97736.47;11266763;26;20037;-31
2024/04/13 09:55:28;;;;;;;8.30;3.10;;;;;;;17.56;50.59;97724.63;11261414;26;20009;-31
2024/04/13 10:00:29;;;;;;;4.47;1.25;;;;;;;17.56;50.35;97717.03;11263753;26;20097;-32
2024/04/13 10:05:33;;;;;;;4.93;1.40;;;;;;;17.55;50.61;97707.69;11260647;26;19994;-32
2024/04/13 10:10:40;;;;;;;2.38;1.35;;;;;;;17.55;51.59;97702.63;11270580;26;20383;-31
2024/04/13 10:15:42;;;;;;;;;;;;;;;17.56;50.49;97711.97;11266999;26;20003;-33
2024/04/13 10:20:45;;;;;;;4.13;0.93;;;;;;;17.56;51.43;97704.38;11265278;26;20275;-31
2024/04/13 10:25:56;;;;;;;4.03;1.40;;;;;;;17.59;51.28;97699.34;11263679;26;19998;-32
2024/04/13 10:30:56;;;;;;;3.10;1.00;;;;;;;17.55;50.63;97690.84;11259745;26;20100;-32
2024/04/13 10:35:57;;;;;;;4.55;1.55;;;;;;;17.54;50.70;97698.41;11256913;26;20009;-31
2024/04/13 10:40:58;;;;;;;6.43;1.03;;;;;;;17.57;51.31;97690.88;11262114;26;20053;-31
2024/04/13 10:46:00;;;;;;;12.50;2.90;;;;;;;17.56;51.35;97684.13;11276127;26;19999;-30
2024/04/13 10:51:00;;;;;;;4.05;1.02;;;;;;;17.56;51.33;97679.06;11263380;26;20634;-32
2024/04/13 10:56:01;;;;;;;4.40;1.17;;;;;;;17.53;50.67;97679.84;11258119;26;19998;-31
2024/04/13 11:01:03;;;;;;;3.30;1.05;;;;;;;17.51;50.88;97680.63;11264856;26;20072;-31
2024/04/13 11:06:05;;;;;;;5.72;1.20;;;;;;;17.51;50.67;97675.56;11269390;26;20003;-33
2024/04/13 11:11:10;;;;;;;6.50;0.95;;;;;;;17.51;50.57;97675.56;11259397;26;20068;-32
2024/04/13 11:16:11;;;;;;;1.65;0.95;;;;;;;17.51;50.56;97670.50;11261252;26;20014;-32
2024/04/13 11:21:12;;;;;;;3.83;1.08;;;;;;;17.49;50.44;97662.88;11265558;26;20010;-33
2024/04/13 11:26:13;;;;;;;1.73;0.90;;;;;;;17.51;50.74;97667.97;11268115;26;20560;-32
2024/04/13 11:31:14;;;;;;;1.95;0.82;;;;;;;17.50;50.05;97663.75;11265200;26;20064;-32
2024/04/13 11:36:18;;;;;;;2.92;0.88;;;;;;;17.46;50.85;97657.75;11253399;26;19995;-32
2024/04/13 11:41:19;;;;;;;2.88;0.77;;;;;;;17.47;50.43;97651.00;11259559;26;20104;-31
2024/04/13 11:46:20;;;;;;;1.67;0.90;;;;;;;17.49;50.63;97645.16;11264350;26;19991;-32
2024/04/13 11:51:20;;;;;;;3.00;0.75;;;;;;;17.48;50.48;97637.53;11267019;26;20349;-32
2024/04/13 11:56:22;;;;;;;0.90;0.80;;;;;;;17.49;50.70;97631.66;11245025;26;20021;-32
2024/04/13 12:01:22;;;;;;;2.60;0.82;;;;;;;17.49;50.50;97626.59;11257948;26;20004;-31
2024/04/13 12:06:22;;;;;;;3.50;1.03;;;;;;;17.49;50.30;97621.53;11242982;26;20411;-33
2024/04/13 12:11:29;;;;;;;1.52;0.73;;;;;;;17.49;50.39;97614.75;11236041;26;20041;-32
2024/04/13 12:16:30;;;;;;;2.33;1.00;;;;;;;17.49;50.47;97611.41;11240064;26;20003;-33
2024/04/13 12:21:31;;;;;;;3.20;1.20;;;;;;;17.47;50.41;97602.91;11238376;26;19999;-32
2024/04/13 12:26:33;;;;;;;3.28;0.93;;;;;;;17.47;50.40;97597.84;11253647;26;20011;-31
2024/04/13 12:31:33;;;;;;;2.35;0.98;;;;;;;17.47;50.35;97595.31;11252412;26;20062;-32
2024/04/13 12:36:35;;;;;;;1.73;0.80;;;;;;;17.48;50.44;97586.91;11253135;26;20002;-32
2024/04/13 12:41:36;;;;;;;1.08;0.75;;;;;;;17.45;50.33;97585.16;11234240;26;20009;-30
2024/04/13 12:46:37;;;;;;;0.77;0.63;;;;;;;17.48;50.38;97575.09;11256805;26;19996;-32
2024/04/13 12:51:38;;;;;;;1.27;0.80;;;;;;;17.49;50.56;97565.81;11245447;26;20013;-31
2024/04/13 12:56:38;;;;;;;1.03;0.73;;;;;;;17.48;50.52;97567.50;11258502;26;20496;-32
2024/04/13 13:01:39;;;;;;;3.03;0.80;;;;;;;17.49;50.39;97560.75;11268322;26;19995;-32
2024/04/13 13:06:39;;;;;;;1.42;0.68;;;;;;;17.48;50.40;97554.84;11242365;26;20228;-32
2024/04/13 13:11:40;;;;;;;1.07;0.70;;;;;;;17.48;50.69;97547.25;11257323;26;20029;-32
2024/04/13 13:16:40;;;;;;;2.83;0.83;;;;;;;17.46;50.22;97541.31;11218545;26;20250;-34
2024/04/13 13:21:40;;;;;;;0.87;0.70;;;;;;;17.49;50.50;97538.81;11256239;26;20444;-31
2024/04/13 13:26:41;;;;;;;1.20;0.80;;;;;;;17.46;50.53;97532.84;11245406;26;20017;-32
2024/04/13 13:31:41;;;;;;;1.52;0.82;;;;;;;17.47;50.44;97526.94;11257048;26;20003;-31
2024/04/13 13:36:41;;;;;;;2.70;0.97;;;;;;;17.47;50.24;97516.81;11256428;26;19999;-32
2024/04/13 13:41:42;;;;;;;2.20;0.80;;;;;;;17.45;50.50;97513.41;11268657;26;19999;-32
2024/04/13 13:46:42;;;;;;;1.23;0.70;;;;;;;17.48;50.31;97509.25;11259007;26;20374;-32
2024/04/13 13:51:43;;;;;;;2.30;0.77;;;;;;;17.46;50.37;97499.94;11229586;26;20076;-32
2024/04/13 13:56:43;;;;;;;1.58;0.85;;;;;;;17.48;50.47;97503.38;11270079;26;19999;-32
2024/04/13 14:01:43;;;;;;;1.67;1.00;;;;;;;17.47;50.59;97492.38;11252261;26;20530;-33
2024/04/13 14:06:44;;;;;;;2.83;1.07;;;;;;;17.46;50.47;97489.81;11249783;26;20347;-32
2024/04/13 14:11:44;;;;;;;2.70;1.20;;;;;;;17.46;50.42;97474.63;11256908;26;19991;-32
2024/04/13 14:16:45;;;;;;;1.17;0.83;;;;;;;17.46;50.45;97470.44;11268639;26;19998;-33
2024/04/13 14:21:45;;;;;;;1.60;0.90;;;;;;;17.46;50.56;97460.28;11254900;26;20660;-32
2024/04/13 14:26:45;;;;;;;1.63;0.90;;;;;;;17.46;50.54;97454.38;11249500;26;20030;-33
2024/04/13 14:31:46;;;;;;;0.80;0.80;;;;;;;17.47;50.43;97448.47;11256869;26;20228;-32
2024/04/13 14:36:46;;;;;;;1.85;0.82;;;;;;;17.47;50.57;97451.00;11245088;26;20007;-32
2024/04/13 14:41:47;;;;;;;0.80;0.70;;;;;;;17.47;50.51;97433.28;11253844;26;19995;-31
2024/04/13 14:46:48;;;;;;;0.60;0.60;;;;;;;17.46;50.60;97440.03;11231802;26;20274;-32
2024/04/13 14:51:48;;;;;;;1.05;0.73;;;;;;;17.44;50.55;97425.66;11236906;26;19998;-32
2024/04/13 14:56:49;;;;;;;0.93;0.83;;;;;;;17.47;50.55;97433.28;11245099;26;20007;-31
2024/04/13 15:01:49;;;;;;;2.25;0.90;;;;;;;17.42;50.65;97420.56;11225804;26;20233;-28
2024/04/13 15:06:50;;;;;;;0.90;0.70;;;;;;;17.47;50.61;97425.69;11238677;26;20549;-33
2024/04/13 15:11:50;;;;;;;1.13;0.70;;;;;;;17.46;50.58;97419.78;11229081;26;20245;-33
2024/04/13 15:16:53;;;;;;;1.20;0.73;;;;;;;17.46;50.62;97413.88;11225326;26;20280;-31
2024/04/13 15:21:56;;;;;;;0.82;0.75;;;;;;;17.42;50.59;97407.91;11254763;26;20411;-29
2024/04/13 15:26:56;;;;;;;1.45;1.02;;;;;;;17.45;50.64;97413.03;11269131;26;19999;-33
2024/04/13 15:31:57;;;;;;;1.07;0.80;;;;;;;17.46;50.61;97409.66;11220336;26;20000;-31
2024/04/13 15:36:57;;;;;;;1.70;0.80;;;;;;;17.46;50.51;97408.81;11253882;26;20009;-33
2024/04/13 15:41:57;;;;;;;1.97;1.00;;;;;;;17.44;50.51;97400.34;11239338;26;20105;-30
2024/04/13 15:46:58;;;;;;;2.20;0.80;;;;;;;17.45;50.85;97399.50;11271572;26;19991;-31
2024/04/13 15:51:58;;;;;;;1.53;0.60;;;;;;;17.46;50.59;97393.63;11253015;26;20645;-31
2024/04/13 15:56:58;;;;;;;1.43;1.00;;;;;;;17.43;50.63;97384.31;11212672;26;20329;-32
2024/04/13 16:01:59;;;;;;;0.97;0.73;;;;;;;17.45;50.49;97380.13;11265917;26;20003;-32
2024/04/13 16:06:59;;;;;;;1.33;0.80;;;;;;;17.46;50.69;97386.03;11266874;26;19999;-33
2024/04/13 16:11:59;;;;;;;1.03;0.77;;;;;;;17.46;50.74;97378.44;11244534;26;20004;-31
2024/04/13 16:17:00;;;;;;;1.02;0.70;;;;;;;17.46;50.45;97378.44;11240290;26;20042;-31
2024/04/13 16:22:04;;;;;;;1.00;0.83;;;;;;;17.45;50.57;97377.59;11235397;26;20015;-33
2024/04/13 16:27:05;;;;;;;1.13;0.80;;;;;;;17.45;50.71;97371.66;11252592;26;20014;-32
2024/04/13 16:32:05;;;;;;;0.87;0.60;;;;;;;17.45;50.73;97376.72;11277139;26;20450;-34
2024/04/13 16:37:06;;;;;;;0.93;0.80;;;;;;;17.45;50.54;97369.13;11265224;26;19995;-31
2024/04/13 16:42:06;;;;;;;1.13;0.97;;;;;;;17.45;50.55;97370.00;11264753;26;20015;-32
2024/04/13 16:47:06;;;;;;;1.00;0.90;;;;;;;17.45;50.53;97369.13;11233390;26;20010;-32
2024/04/13 16:52:07;;;;;;;1.27;0.77;;;;;;;17.45;50.55;97369.13;11250516;26;20322;-31
2024/04/13 16:57:07;;;;;;;0.87;0.60;;;;;;;17.45;50.75;97369.13;11237476;26;20880;-31
2024/04/13 17:02:07;;;;;;;1.10;0.80;;;;;;;17.44;50.73;97359.84;11230182;26;20344;-33
2024/04/13 17:07:08;;;;;;;1.33;0.90;;;;;;;17.45;50.57;97359.00;11276201;26;20046;-33
2024/04/13 17:12:08;;;;;;;2.00;0.70;;;;;;;17.44;50.64;97355.66;11248944;26;19999;-29
2024/04/13 17:17:09;;;;;;;1.13;0.80;;;;;;;17.46;50.47;97358.19;11210148;26;20030;-33
2024/04/13 17:22:09;;;;;;;1.87;0.50;;;;;;;17.46;50.81;97353.09;11238610;26;20236;-31
2024/04/13 17:27:10;;;;;;;0.85;0.60;;;;;;;17.45;50.51;97351.41;11226714;26;20330;-34
2024/04/13 17:32:10;;;;;;;0.57;0.53;;;;;;;17.44;50.32;97349.72;11266057;26;20021;-33
2024/04/13 17:37:10;;;;;;;0.67;0.67;;;;;;;17.44;50.46;97344.66;11257777;26;20003;-31
2024/04/13 17:42:11;;;;;;;0.83;0.50;;;;;;;17.44;50.79;97345.53;11223994;26;19999;-31
2024/04/13 17:47:11;;;;;;;0.83;0.60;;;;;;;17.46;50.50;97345.50;11228322;26;20072;-31
2024/04/13 17:52:12;;;;;;;0.60;0.60;;;;;;;17.42;50.30;97342.09;11259755;26;20789;-33
2024/04/13 17:57:12;;;;;;;0.73;0.73;;;;;;;17.44;50.44;97339.59;11246716;26;20661;-33
2024/04/13 18:02:12;;;;;;;0.70;0.50;;;;;;;17.43;50.46;97338.75;11270190;26;20075;-32
2024/04/13 18:07:13;;;;;;;0.87;0.50;;;;;;;17.44;50.13;97344.66;11225071;26;20729;-32
2024/04/13 18:12:16;;;;;;;1.43;0.63;;;;;;;17.44;50.49;97339.59;11249064;26;20234;-33
2024/04/13 18:17:16;;;;;;;0.60;0.60;;;;;;;17.43;50.21;97341.28;11252886;26;20224;-33
2024/04/13 18:22:19;;;;;;;0.80;0.45;;;;;;;17.43;50.43;97348.88;11275913;26;20059;-31
2024/04/13 18:27:20;;;;;;;0.73;0.52;;;;;;;17.43;50.43;97342.97;11239742;26;20513;-32
2024/04/13 18:32:20;;;;;;;1.17;0.70;;;;;;;17.43;50.34;97348.88;11243739;26;20073;-31
2024/04/13 18:37:20;;;;;;;0.47;0.43;;;;;;;17.44;50.38;97354.78;11235713;26;20061;-31
2024/04/13 18:42:21;;;;;;;0.80;0.80;;;;;;;17.43;50.19;97348.88;11228678;26;20456;-31
2024/04/13 18:47:23;;;;;;;1.60;0.50;;;;;;;17.45;50.46;97361.53;11248066;26;20292;-31
2024/04/13 18:52:24;;;;;;;0.75;0.75;;;;;;;17.44;50.25;97377.56;11267287;26;20224;-32
2024/04/13 18:57:24;;;;;;;0.60;0.60;;;;;;;17.44;50.36;97385.16;11225297;26;20052;-33
2024/04/13 19:02:24;;;;;;;2.13;0.70;;;;;;;17.45;50.30;97391.91;11254649;26;20272;-32
2024/04/13 19:07:25;;;;;;;1.07;0.60;;;;;;;17.44;50.31;97392.75;11246195;26;19998;-31
2024/04/13 19:12:26;;;;;;;0.73;0.60;;;;;;;17.44;50.46;97391.09;11227637;26;20053;-32
2024/04/13 19:17:26;;;;;;;1.00;0.60;;;;;;;17.44;50.36;97400.34;11258160;26;20313;-32
2024/04/13 19:22:28;;;;;;;0.57;0.40;;;;;;;17.43;50.09;97391.91;11229357;26;19995;-32
2024/04/13 19:27:28;;;;;;;0.50;0.50;;;;;;;17.44;50.18;97398.69;11262825;26;19994;-33
2024/04/13 19:32:28;;;;;;;0.53;0.53;;;;;;;17.44;50.29;97400.34;11263314;26;20003;-33
2024/04/13 19:37:29;;;;;;;0.80;0.63;;;;;;;17.41;50.41;97401.13;11251250;26;19998;-31
2024/04/13 19:42:29;;;;;;;0.60;0.60;;;;;;;17.43;50.19;97401.19;11239419;26;20010;-32
2024/04/13 19:47:30;;;;;;;0.87;0.50;;;;;;;17.42;50.19;97402.00;11248428;26;20411;-32
2024/04/13 19:52:31;;;;;;;1.30;0.50;;;;;;;17.41;50.09;97402.84;11251533;26;20436;-33
2024/04/13 19:57:31;;;;;;;0.63;0.50;;;;;;;17.42;50.04;97402.00;11223740;26;20011;-31
2024/04/13 20:02:32;;;;;;;0.60;0.50;;;;;;;17.43;50.03;97403.72;11265160;26;20010;-32
2024/04/13 20:07:35;;;;;;;0.60;0.60;;;;;;;17.45;49.99;97412.16;11248822;26;19999;-31
2024/04/13 20:12:35;;;;;;;0.60;0.60;;;;;;;17.43;49.95;97394.44;11272709;26;20013;-32
2024/04/13 20:22:55;;;;;;;0.70;0.57;;;;;;;17.42;49.86;97396.94;11208426;26;20623;-33
2024/04/13 20:27:55;;;;;;;0.60;0.40;;;;;;;17.42;50.03;97391.88;11253140;26;20070;-31
2024/04/13 20:32:56;;;;;;;0.53;0.50;;;;;;;17.42;50.00;97395.25;11252740;26;20268;-31
2024/04/13 20:37:56;;;;;;;0.60;0.43;;;;;;;17.43;49.79;97386.00;11244901;26;20310;-32
2024/04/13 20:42:57;;;;;;;0.60;0.60;;;;;;;17.42;50.03;97381.75;11235767;26;19996;-32
2024/04/13 20:47:57;;;;;;;0.55;0.43;;;;;;;17.41;50.18;97377.53;11253785;26;20232;-32
2024/04/13 20:52:58;;;;;;;0.60;0.60;;;;;;;17.43;49.93;97378.41;11235076;26;20377;-31
2024/04/13 20:57:58;;;;;;;0.60;0.60;;;;;;;17.42;50.08;97371.63;11246193;26;20079;-32
2024/04/13 21:02:58;;;;;;;0.70;0.60;;;;;;;17.44;50.25;97375.03;11257994;26;19999;-32
2024/04/13 21:08:02;;;;;;;0.80;0.60;;;;;;;17.41;50.26;97370.75;11270246;26;20445;-33
2024/04/13 21:13:03;;;;;;;1.00;0.50;;;;;;;17.42;50.05;97372.47;11265272;26;19997;-31
2024/04/13 21:18:04;;;;;;;0.70;0.70;;;;;;;17.43;50.02;97370.78;11267833;26;20384;-31
2024/04/13 21:23:05;;;;;;;0.60;0.50;;;;;;;17.44;49.81;97367.44;11273006;26;20414;-33
2024/04/13 21:28:06;;;;;;;0.60;0.53;;;;;;;17.46;49.76;97358.19;11250468;26;20041;-32
2024/04/13 21:33:08;;;;;;;0.50;0.50;;;;;;;17.45;50.04;97361.53;11257186;26;20042;-33
2024/04/13 21:38:08;;;;;;;0.90;0.70;;;;;;;17.43;49.96;97353.06;11237226;26;20013;-33
2024/04/13 21:43:09;;;;;;;0.90;0.63;;;;;;;17.43;49.99;97353.06;11271482;26;20075;-31
2024/04/13 21:48:09;;;;;;;0.75;0.57;;;;;;;17.43;49.96;97363.22;11254061;26;19999;-32
2024/04/13 21:53:11;;;;;;;0.50;0.40;;;;;;;17.45;50.01;97351.41;11257527;26;19995;-33
2024/04/13 21:58:12;;;;;;;0.63;0.50;;;;;;;17.43;50.02;97353.06;11271889;26;19995;-32
2024/04/13 22:03:12;;;;;;;0.67;0.43;;;;;;;17.41;50.00;97350.50;11250226;26;20003;-31
2024/04/13 22:08:15;;;;;;;1.45;0.40;;;;;;;17.42;49.93;97343.78;11243767;26;20003;-31
2024/04/13 22:13:16;;;;;;;0.40;0.40;;;;;;;17.41;49.58;97334.50;11263134;26;20512;-31
2024/04/13 22:18:18;;;;;;;0.73;0.60;;;;;;;17.40;49.82;97337.88;11255224;26;20228;-33
2024/04/13 22:23:19;;;;;;;0.70;0.50;;;;;;;17.41;49.81;97337.03;11264672;26;20006;-32
2024/04/13 22:28:19;;;;;;;0.63;0.55;;;;;;;17.41;49.59;97337.03;11225873;26;20014;-31
2024/04/13 22:33:19;;;;;;;0.40;0.40;;;;;;;17.42;49.90;97343.78;11254039;26;19995;-31
2024/04/13 22:38:20;;;;;;;0.87;0.47;;;;;;;17.41;49.79;97344.63;11232627;26;20104;-31
2024/04/13 22:43:22;;;;;;;0.30;0.30;;;;;;;17.43;49.79;97342.97;11256478;26;20018;-32
2024/04/13 22:48:23;;;;;;;0.73;0.43;;;;;;;17.43;49.54;97342.97;11253672;26;20010;-31
2024/04/13 22:53:24;;;;;;;1.30;0.32;;;;;;;17.42;50.00;97333.66;11255275;26;20006;-31
2024/04/13 22:58:24;;;;;;;0.50;0.50;;;;;;;17.42;49.82;97331.13;11232645;26;19996;-32
2024/04/13 23:03:24;;;;;;;0.50;0.40;;;;;;;17.40;49.83;97320.16;11268758;26;20334;-31
2024/04/13 23:08:26;;;;;;;0.30;0.20;;;;;;;17.39;49.79;97311.69;11262285;26;20715;-32
2024/04/13 23:13:26;;;;;;;0.30;0.30;;;;;;;17.41;49.74;97321.84;11267548;26;20030;-32
2024/04/13 23:18:27;;;;;;;0.40;0.40;;;;;;;17.40;49.63;97317.63;11253483;26;20352;-32
2024/04/13 23:23:27;;;;;;;0.60;0.60;;;;;;;17.42;49.66;97326.06;11264850;26;20243;-31